createdAt,value
2023-01-13T00:00:38.449Z,1.90
2023-01-13T00:03:06.879Z,1.43
2023-01-13T00:05:35.410Z,1.52
2023-01-13T00:08:04.994Z,1.30
2023-01-13T00:10:33.796Z,1.25
2023-01-13T00:13:03.082Z,2.13
2023-01-13T00:15:31.319Z,2.03
2023-01-13T00:18:01.391Z,2.25
2023-01-13T00:20:29.628Z,2.08
2023-01-13T00:22:58.959Z,2.17
2023-01-13T00:25:27.331Z,2.17
2023-01-13T00:27:55.828Z,2.35
2023-01-13T00:30:24.065Z,2.20
2023-01-13T00:32:52.286Z,2.15
2023-01-13T00:35:21.999Z,2.03
2023-01-13T00:37:50.312Z,2.13
2023-01-13T00:40:18.820Z,2.17
2023-01-13T00:43:04.685Z,2.15
2023-01-13T00:45:33.011Z,1.60
2023-01-13T00:48:01.199Z,1.50
2023-01-13T00:50:31.276Z,1.57
2023-01-13T00:53:01.373Z,1.25
2023-01-13T00:55:32.038Z,1.50
2023-01-13T00:58:03.623Z,1.42
2023-01-13T01:00:32.205Z,1.25
2023-01-13T01:03:00.664Z,1.60
2023-01-13T01:05:30.399Z,1.52
2023-01-13T01:07:58.645Z,1.27
2023-01-13T01:10:26.992Z,0.93
2023-01-13T01:12:55.177Z,1.38
2023-01-13T01:15:23.429Z,1.20
2023-01-13T01:17:51.644Z,1.23
2023-01-13T01:20:20.137Z,0.90
2023-01-13T01:22:49.811Z,0.88
2023-01-13T01:25:18.175Z,0.90
2023-01-13T01:27:46.403Z,1.10
2023-01-13T01:30:15.833Z,0.55
2023-01-13T01:32:44.076Z,0.93
2023-01-13T01:35:12.279Z,1.23
2023-01-13T01:37:40.868Z,0.68
2023-01-13T01:40:12.129Z,0.90
2023-01-13T01:42:57.508Z,1.10
2023-01-13T01:45:28.312Z,0.90
2023-01-13T01:48:00.263Z,0.85
2023-01-13T01:50:29.823Z,1.17
2023-01-13T01:53:03.965Z,0.80
2023-01-13T01:55:37.846Z,0.90
2023-01-13T01:58:11.834Z,0.73
2023-01-13T02:00:40.203Z,0.90
2023-01-13T02:03:09.874Z,1.08
2023-01-13T02:05:38.998Z,0.98
2023-01-13T02:08:08.277Z,1.20
2023-01-13T02:10:38.099Z,0.90
2023-01-13T02:13:08.759Z,0.80
2023-01-13T02:15:43.647Z,1.45
2023-01-13T02:18:37.807Z,1.05
2023-01-13T02:21:34.992Z,1.00
2023-01-13T02:24:56.762Z,0.80
2023-01-13T02:28:00.188Z,0.90
2023-01-13T02:30:59.288Z,1.10
2023-01-13T02:33:54.672Z,0.80
2023-01-13T02:36:37.100Z,1.10
2023-01-13T02:39:11.245Z,0.80
2023-01-13T02:42:01.149Z,1.02
2023-01-13T02:44:34.536Z,0.65
2023-01-13T02:47:09.359Z,1.20
2023-01-13T02:49:40.539Z,1.15
2023-01-13T02:52:15.154Z,1.15
2023-01-13T02:54:48.951Z,1.00
2023-01-13T02:57:19.743Z,1.00
2023-01-13T02:59:49.117Z,1.00
2023-01-13T03:02:22.959Z,0.85
2023-01-13T03:04:54.023Z,1.00
2023-01-13T03:08:01.253Z,1.10
2023-01-13T03:10:37.335Z,0.90
2023-01-13T03:13:16.078Z,0.90
2023-01-13T03:15:54.116Z,1.15
2023-01-13T03:18:36.249Z,1.30
2023-01-13T03:21:10.575Z,0.93
2023-01-13T03:23:48.563Z,1.13
2023-01-13T03:26:24.415Z,0.98
2023-01-13T03:28:57.896Z,1.00
2023-01-13T03:31:31.853Z,0.90
2023-01-13T03:34:04.911Z,1.17
2023-01-13T03:36:35.325Z,1.25
2023-01-13T03:39:08.986Z,1.40
2023-01-13T03:41:41.575Z,1.67
2023-01-13T03:44:25.010Z,1.58
2023-01-13T03:47:04.075Z,1.20
2023-01-13T03:49:38.813Z,1.45
2023-01-13T03:52:11.126Z,1.45
2023-01-13T03:54:49.518Z,1.50
2023-01-13T03:57:20.689Z,1.73
2023-01-13T03:59:52.984Z,1.17
2023-01-13T04:02:28.753Z,1.30
2023-01-13T04:05:01.092Z,1.27
2023-01-13T04:07:41.108Z,1.50
2023-01-13T04:10:11.616Z,1.60
2023-01-13T04:13:01.879Z,1.17
2023-01-13T04:15:33.357Z,1.17
2023-01-13T04:18:15.165Z,1.50
2023-01-13T04:20:46.620Z,1.70
2023-01-13T04:23:15.030Z,1.40
2023-01-13T04:25:44.341Z,1.33
2023-01-13T04:28:13.596Z,1.50
2023-01-13T04:30:42.439Z,1.50
2023-01-13T04:33:14.467Z,1.75
2023-01-13T04:35:45.065Z,1.23
2023-01-13T04:38:15.160Z,1.17
2023-01-13T04:40:43.635Z,1.52
2023-01-13T04:43:11.886Z,1.45
2023-01-13T04:45:40.319Z,1.85
2023-01-13T04:48:08.667Z,1.77
2023-01-13T04:50:36.928Z,1.38
2023-01-13T04:53:06.952Z,1.83
2023-01-13T04:55:35.414Z,1.65
2023-01-13T04:58:04.691Z,1.85
2023-01-13T05:00:33.122Z,1.75
2023-01-13T05:03:01.408Z,1.33
2023-01-13T05:05:31.032Z,1.95
2023-01-13T05:07:59.653Z,1.35
2023-01-13T05:10:29.596Z,1.65
2023-01-13T05:13:15.628Z,1.60
2023-01-13T05:16:02.304Z,1.15
2023-01-13T05:18:32.204Z,1.40
2023-01-13T05:21:00.445Z,1.30
2023-01-13T05:23:45.875Z,1.13
2023-01-13T05:26:15.567Z,1.13
2023-01-13T05:28:43.841Z,1.13
2023-01-13T05:31:14.955Z,1.30
2023-01-13T05:33:43.400Z,1.30
2023-01-13T05:36:11.868Z,1.15
2023-01-13T05:38:40.107Z,1.33
2023-01-13T05:41:26.416Z,1.10
2023-01-13T05:43:56.020Z,1.30
2023-01-13T05:46:24.431Z,1.25
2023-01-13T05:48:52.708Z,1.75
2023-01-13T05:51:26.307Z,1.40
2023-01-13T05:53:54.664Z,2.28
2023-01-13T05:56:22.937Z,1.88
2023-01-13T05:58:51.148Z,1.75
2023-01-13T06:01:20.762Z,2.03
2023-01-13T06:03:48.980Z,1.77
2023-01-13T06:06:17.226Z,2.17
2023-01-13T06:08:45.435Z,2.03
2023-01-13T06:11:13.694Z,2.17
2023-01-13T06:13:41.937Z,1.65
2023-01-13T06:16:11.228Z,1.85
2023-01-13T06:18:40.878Z,2.13
2023-01-13T06:21:09.116Z,1.67
2023-01-13T06:23:38.785Z,1.85
2023-01-13T06:26:13.116Z,2.17
2023-01-13T06:28:41.332Z,1.60
2023-01-13T06:31:11.514Z,2.00
2023-01-13T06:33:44.092Z,1.95
2023-01-13T06:36:16.577Z,2.10
2023-01-13T06:38:47.659Z,1.98
2023-01-13T06:41:16.283Z,1.87
2023-01-13T06:43:43.653Z,1.83
2023-01-13T06:46:11.887Z,1.92
2023-01-13T06:48:41.746Z,2.33
2023-01-13T06:51:09.940Z,1.98
2023-01-13T06:53:38.283Z,1.80
2023-01-13T06:56:06.790Z,2.20
2023-01-13T06:58:35.010Z,2.03
2023-01-13T07:01:03.375Z,2.00
2023-01-13T07:03:32.678Z,2.17
2023-01-13T07:06:02.415Z,2.05
2023-01-13T07:08:30.679Z,1.63
2023-01-13T07:10:58.949Z,1.98
2023-01-13T07:13:44.343Z,2.10
2023-01-13T07:16:12.617Z,1.77
2023-01-13T07:18:40.872Z,2.30
2023-01-13T07:21:13.251Z,1.90
2023-01-13T07:23:42.514Z,1.92
2023-01-13T07:26:11.918Z,2.13
2023-01-13T07:28:41.090Z,2.33
2023-01-13T07:31:15.533Z,1.90
2023-01-13T07:33:44.041Z,2.22
2023-01-13T07:36:14.149Z,2.13
2023-01-13T07:38:44.558Z,1.90
2023-01-13T07:41:31.676Z,2.00
2023-01-13T07:44:00.404Z,1.70
2023-01-13T07:46:28.762Z,2.03
2023-01-13T07:48:56.995Z,1.63
2023-01-13T07:51:26.657Z,1.52
2023-01-13T07:53:55.304Z,1.33
2023-01-13T07:56:23.648Z,1.55
2023-01-13T07:58:53.041Z,1.53
2023-01-13T08:01:21.654Z,1.60
2023-01-13T08:03:49.987Z,1.48
2023-01-13T08:06:18.383Z,1.30
2023-01-13T08:08:48.045Z,2.08
2023-01-13T08:11:16.571Z,1.20
2023-01-13T08:13:44.881Z,1.58
2023-01-13T08:16:14.947Z,1.50
2023-01-13T08:18:43.916Z,1.60
2023-01-13T08:21:14.958Z,1.40
2023-01-13T08:23:46.380Z,1.17
2023-01-13T08:26:18.326Z,1.67
2023-01-13T08:28:46.957Z,1.60
2023-01-13T08:31:17.270Z,1.30
2023-01-13T08:33:45.924Z,1.30
2023-01-13T08:36:14.486Z,1.92
2023-01-13T08:38:43.279Z,1.23
2023-01-13T08:41:12.667Z,1.20
2023-01-13T08:43:42.545Z,2.00
2023-01-13T08:46:11.780Z,1.37
2023-01-13T08:48:40.182Z,2.35
2023-01-13T08:51:10.874Z,1.38
2023-01-13T08:53:39.215Z,1.67
2023-01-13T08:56:11.043Z,1.50
2023-01-13T08:58:40.754Z,1.20
2023-01-13T09:01:12.573Z,1.40
2023-01-13T09:03:42.015Z,1.20
2023-01-13T09:06:10.435Z,1.20
2023-01-13T09:08:38.852Z,1.57
2023-01-13T09:11:27.710Z,1.20
2023-01-13T09:13:55.000Z,1.40
2023-01-13T09:16:24.885Z,1.45
2023-01-13T09:18:53.171Z,1.27
2023-01-13T09:21:24.908Z,1.00
2023-01-13T09:23:54.875Z,1.20
2023-01-13T09:26:23.415Z,1.40
2023-01-13T09:28:51.812Z,1.10
2023-01-13T09:31:20.228Z,1.70
2023-01-13T09:34:07.528Z,1.08
2023-01-13T09:36:35.829Z,1.13
2023-01-13T09:39:04.174Z,1.23
2023-01-13T09:41:51.451Z,1.20
2023-01-13T09:44:26.690Z,1.30
2023-01-13T09:46:59.232Z,1.10
2023-01-13T09:49:34.895Z,1.42
2023-01-13T09:52:10.066Z,1.23
2023-01-13T09:54:43.464Z,1.30
2023-01-13T09:57:13.780Z,1.08
2023-01-13T09:59:42.606Z,1.58
2023-01-13T10:02:41.027Z,1.30
2023-01-13T10:05:28.843Z,1.30
2023-01-13T10:08:03.983Z,1.40
2023-01-13T10:10:39.588Z,2.20
2023-01-13T10:13:16.461Z,1.48
2023-01-13T10:15:57.516Z,1.52
2023-01-13T10:18:34.900Z,2.13
2023-01-13T10:21:17.439Z,1.40
2023-01-13T10:23:57.926Z,1.70
2023-01-13T10:26:48.455Z,1.77
2023-01-13T10:29:26.498Z,1.92
2023-01-13T10:31:56.009Z,1.77
2023-01-13T10:34:25.073Z,1.60
2023-01-13T10:37:03.127Z,1.80
2023-01-13T10:39:41.057Z,1.40
2023-01-13T10:42:15.408Z,1.77
2023-01-13T10:44:52.304Z,1.63
2023-01-13T10:47:28.996Z,1.88
2023-01-13T10:50:03.731Z,1.60
2023-01-13T10:52:36.916Z,1.93
2023-01-13T10:55:24.579Z,1.35
2023-01-13T10:57:52.978Z,1.80
2023-01-13T11:00:30.086Z,1.65
2023-01-13T11:03:19.714Z,1.48
2023-01-13T11:05:53.940Z,1.60
2023-01-13T11:08:25.565Z,1.75
2023-01-13T11:10:55.815Z,2.17
2023-01-13T11:13:31.864Z,1.60
2023-01-13T11:16:04.660Z,1.63
2023-01-13T11:18:43.646Z,1.67
2023-01-13T11:21:22.470Z,1.45
2023-01-13T11:24:03.616Z,1.55
2023-01-13T11:26:43.022Z,1.67
2023-01-13T11:29:16.884Z,1.52
2023-01-13T11:31:50.446Z,1.42
2023-01-13T11:34:29.420Z,1.83
2023-01-13T11:37:02.152Z,1.30
2023-01-13T11:39:45.890Z,1.73
2023-01-13T11:42:27.921Z,1.85
2023-01-13T11:45:16.707Z,2.00
2023-01-13T11:47:51.713Z,2.00
2023-01-13T11:50:27.608Z,1.92
2023-01-13T11:53:17.101Z,2.47
2023-01-13T11:55:56.689Z,2.30
2023-01-13T11:58:50.710Z,1.90
2023-01-13T12:01:46.256Z,1.95
2023-01-13T12:04:26.086Z,2.20
2023-01-13T12:07:07.534Z,2.25
2023-01-13T12:09:47.232Z,3.05
2023-01-13T12:12:27.800Z,1.90
2023-01-13T12:15:27.975Z,2.25
2023-01-13T12:18:21.585Z,2.80
2023-01-13T12:21:03.943Z,2.30
2023-01-13T12:23:35.723Z,2.40
2023-01-13T12:26:08.843Z,2.17
2023-01-13T12:28:45.889Z,2.45
2023-01-13T12:31:19.022Z,2.25
2023-01-13T12:33:58.808Z,2.65
2023-01-13T12:36:36.005Z,2.67
2023-01-13T12:39:14.707Z,2.20
2023-01-13T12:42:02.048Z,2.85
2023-01-13T12:44:31.790Z,2.40
2023-01-13T12:47:01.162Z,2.80
2023-01-13T12:49:35.353Z,2.63
2023-01-13T12:52:20.026Z,3.42
2023-01-13T12:55:24.792Z,2.55
2023-01-13T12:58:14.146Z,2.63
2023-01-13T13:01:01.336Z,2.67
2023-01-13T13:03:35.139Z,2.08
2023-01-13T13:06:09.251Z,2.60
2023-01-13T13:09:08.352Z,2.13
2023-01-13T13:12:14.126Z,2.55
2023-01-13T13:15:04.124Z,2.58
2023-01-13T13:18:06.300Z,2.72
2023-01-13T13:20:55.159Z,2.33
2023-01-13T13:23:58.724Z,1.90
2023-01-13T13:26:38.538Z,2.20
2023-01-13T13:29:29.818Z,2.20
2023-01-13T13:32:16.532Z,2.75
2023-01-13T13:34:53.518Z,2.25
2023-01-13T13:38:05.289Z,2.53
2023-01-13T13:40:58.902Z,2.47
2023-01-13T13:43:46.183Z,2.50
2023-01-13T13:46:44.262Z,3.08
2023-01-13T13:49:13.367Z,2.30
2023-01-13T13:51:49.374Z,2.40
2023-01-13T13:54:21.132Z,2.88
2023-01-13T13:56:50.981Z,2.80
2023-01-13T13:59:22.766Z,2.67
2023-01-13T14:02:00.838Z,2.30
2023-01-13T14:04:31.207Z,1.80
2023-01-13T14:07:05.038Z,2.40
2023-01-13T14:09:42.552Z,2.80
2023-01-13T14:12:20.160Z,2.10
2023-01-13T14:14:49.937Z,2.00
2023-01-13T14:17:25.362Z,2.40
2023-01-13T14:19:56.871Z,2.42
2023-01-13T14:22:27.409Z,2.13
2023-01-13T14:24:57.810Z,2.25
2023-01-13T14:27:28.482Z,2.55
2023-01-13T14:29:58.460Z,2.75
2023-01-13T14:32:33.994Z,2.67
2023-01-13T14:35:02.503Z,2.33
2023-01-13T14:37:36.611Z,2.80
2023-01-13T14:40:06.418Z,2.78
2023-01-13T14:42:35.676Z,3.00
2023-01-13T14:45:04.831Z,3.00
2023-01-13T14:47:34.888Z,2.35
2023-01-13T14:50:07.324Z,2.50
2023-01-13T14:52:47.576Z,2.60
2023-01-13T14:55:41.448Z,2.95
2023-01-13T14:58:25.216Z,3.08
2023-01-13T15:01:17.528Z,3.00
2023-01-13T15:03:45.918Z,2.75
2023-01-13T15:06:24.750Z,2.65
2023-01-13T15:08:54.561Z,3.05
2023-01-13T15:11:25.732Z,2.50
2023-01-13T15:13:59.632Z,2.65
2023-01-13T15:16:29.957Z,3.10
2023-01-13T15:18:59.123Z,2.20
2023-01-13T15:21:27.402Z,2.67
2023-01-13T15:23:57.149Z,2.25
2023-01-13T15:26:26.911Z,2.97
2023-01-13T15:28:57.252Z,2.88
2023-01-13T15:31:26.672Z,3.00
2023-01-13T15:33:55.125Z,3.47
2023-01-13T15:36:28.939Z,3.58
2023-01-13T15:39:00.012Z,2.63
2023-01-13T15:41:46.204Z,3.30
2023-01-13T15:44:33.823Z,3.03
2023-01-13T15:47:04.585Z,2.88
2023-01-13T15:49:36.447Z,3.03
2023-01-13T15:52:06.041Z,2.95
2023-01-13T15:54:35.689Z,2.95
2023-01-13T15:57:03.998Z,2.85
2023-01-13T15:59:33.924Z,2.63
2023-01-13T16:02:04.339Z,2.60
2023-01-13T16:04:32.592Z,2.50
2023-01-13T16:07:01.084Z,2.93
2023-01-13T16:09:32.037Z,3.30
2023-01-13T16:12:01.655Z,2.83
2023-01-13T16:14:29.877Z,3.25
2023-01-13T16:16:58.314Z,3.50
2023-01-13T16:19:26.585Z,5.32
2023-01-13T16:21:55.324Z,2.80
2023-01-13T16:24:23.744Z,3.87
2023-01-13T16:26:52.006Z,3.10
2023-01-13T16:29:21.650Z,4.03
2023-01-13T16:31:50.052Z,4.03
2023-01-13T16:34:19.077Z,3.83
2023-01-13T16:36:47.420Z,3.42
2023-01-13T16:39:21.873Z,5.07
2023-01-13T16:41:50.276Z,4.63
2023-01-13T16:44:18.620Z,3.55
2023-01-13T16:46:48.502Z,4.15
2023-01-13T16:49:17.872Z,4.43
2023-01-13T16:51:46.135Z,3.90
2023-01-13T16:54:14.442Z,3.30
2023-01-13T16:56:42.836Z,3.97
2023-01-13T16:59:14.760Z,3.17
2023-01-13T17:01:45.020Z,3.63
2023-01-13T17:04:18.302Z,2.90
2023-01-13T17:06:53.877Z,3.00
2023-01-13T17:09:24.802Z,3.67
2023-01-13T17:11:53.748Z,3.83
2023-01-13T17:14:24.653Z,3.20
2023-01-13T17:16:55.179Z,4.13
2023-01-13T17:19:25.738Z,4.33
2023-01-13T17:21:54.152Z,4.05
2023-01-13T17:24:26.655Z,4.80
2023-01-13T17:26:54.931Z,4.50
2023-01-13T17:29:25.861Z,10.25
2023-01-13T17:31:54.745Z,10.30
2023-01-13T17:34:24.629Z,9.50
2023-01-13T17:36:52.966Z,7.80
2023-01-13T17:39:23.672Z,11.52
2023-01-13T17:41:52.632Z,6.20
2023-01-13T17:44:22.801Z,6.90
2023-01-13T17:46:51.531Z,5.20
2023-01-13T17:49:21.822Z,4.80
2023-01-13T17:51:53.092Z,4.50
2023-01-13T17:54:21.968Z,6.45
2023-01-13T17:56:50.438Z,5.57
2023-01-13T17:59:19.986Z,4.40
2023-01-13T18:01:48.318Z,6.57
2023-01-13T18:04:17.852Z,5.90
2023-01-13T18:06:46.993Z,5.38
2023-01-13T18:09:17.031Z,5.38
2023-01-13T18:11:47.229Z,4.05
2023-01-13T18:14:15.840Z,3.20
2023-01-13T18:16:45.108Z,3.53
2023-01-13T18:19:30.733Z,3.70
2023-01-13T18:22:16.452Z,3.60
2023-01-13T18:25:03.644Z,4.35
2023-01-13T18:27:33.907Z,4.07
2023-01-13T18:30:04.675Z,3.35
2023-01-13T18:32:34.885Z,3.80
2023-01-13T18:35:07.192Z,4.75
2023-01-13T18:37:38.662Z,4.05
2023-01-13T18:40:10.828Z,4.35
2023-01-13T18:42:54.824Z,4.78
2023-01-13T18:45:27.794Z,4.00
2023-01-13T18:47:57.830Z,3.05
2023-01-13T18:50:26.369Z,3.35
2023-01-13T18:52:54.988Z,3.80
2023-01-13T18:55:25.615Z,3.55
2023-01-13T18:57:53.944Z,3.83
2023-01-13T19:00:25.306Z,4.97
2023-01-13T19:05:35.676Z,5.60
2023-01-13T19:08:04.351Z,6.50
2023-01-13T19:10:34.095Z,8.70
2023-01-13T19:13:02.778Z,5.75
2023-01-13T19:15:31.469Z,5.85
2023-01-13T19:18:02.353Z,8.02
2023-01-13T19:20:30.677Z,7.20
2023-01-13T19:25:52.119Z,5.35
2023-01-13T19:28:20.376Z,5.55
2023-01-13T19:30:48.620Z,5.65
2023-01-13T19:33:16.896Z,4.78
2023-01-13T19:35:45.140Z,5.10
2023-01-13T19:38:13.578Z,4.43
2023-01-13T19:40:41.793Z,4.87
2023-01-13T19:43:29.192Z,5.28
2023-01-13T19:45:57.516Z,5.20
2023-01-13T19:48:26.342Z,5.00
2023-01-13T19:50:54.653Z,4.95
2023-01-13T19:53:22.937Z,5.60
2023-01-13T19:55:51.360Z,5.32
2023-01-13T19:58:24.034Z,5.18
2023-01-13T20:00:52.644Z,5.43
2023-01-13T20:03:23.775Z,4.95
2023-01-13T20:05:52.068Z,4.65
2023-01-13T20:08:20.417Z,4.25
2023-01-13T20:10:49.558Z,4.07
2023-01-13T20:13:18.268Z,5.90
2023-01-13T20:15:50.733Z,4.85
2023-01-13T20:18:19.057Z,6.85
2023-01-13T20:20:47.455Z,6.10
2023-01-13T20:23:15.707Z,6.57
2023-01-13T20:25:44.267Z,6.05
2023-01-13T20:28:12.551Z,6.68
2023-01-13T20:30:41.738Z,7.35
2023-01-13T20:33:11.405Z,7.53
2023-01-13T20:35:39.639Z,6.03
2023-01-13T20:38:08.085Z,5.20
2023-01-13T20:40:36.327Z,4.30
2023-01-13T20:43:03.613Z,4.00
2023-01-13T20:45:32.017Z,5.20
2023-01-13T20:48:00.436Z,3.95
2023-01-13T20:50:30.080Z,3.63
2023-01-13T20:52:58.328Z,4.00
2023-01-13T20:55:26.688Z,3.50
2023-01-13T20:57:55.005Z,3.63
2023-01-13T21:00:23.724Z,3.78
2023-01-13T21:02:52.329Z,4.10
2023-01-13T21:05:21.115Z,3.90
2023-01-13T21:07:50.808Z,3.80
2023-01-13T21:10:19.463Z,3.85
2023-01-13T21:13:06.930Z,3.35
2023-01-13T21:15:35.326Z,3.20
2023-01-13T21:18:20.857Z,3.10
2023-01-13T21:20:50.897Z,3.00
2023-01-13T21:23:20.704Z,3.33
2023-01-13T21:25:49.104Z,3.22
2023-01-13T21:28:18.958Z,3.10
2023-01-13T21:30:48.143Z,3.67
2023-01-13T21:33:16.447Z,4.28
2023-01-13T21:35:44.840Z,3.58
2023-01-13T21:38:13.758Z,3.75
2023-01-13T21:40:43.555Z,2.67
2023-01-13T21:43:36.881Z,3.20
2023-01-13T21:46:22.880Z,3.30
2023-01-13T21:48:51.154Z,4.03
2023-01-13T21:51:19.684Z,3.75
2023-01-13T21:53:48.119Z,4.75
2023-01-13T21:56:18.063Z,6.00
2023-01-13T21:58:46.434Z,5.38
2023-01-13T22:01:14.997Z,3.72
2023-01-13T22:04:00.661Z,5.72
2023-01-13T22:06:29.461Z,7.70
2023-01-13T22:09:00.028Z,8.25
2023-01-13T22:11:29.904Z,4.00
2023-01-13T22:14:08.975Z,3.60
2023-01-13T22:16:41.472Z,2.33
2023-01-13T22:19:11.137Z,2.13
2023-01-13T22:21:40.166Z,1.90
2023-01-13T22:24:08.890Z,1.60
2023-01-13T22:26:38.704Z,1.13
2023-01-13T22:29:06.977Z,1.37
2023-01-13T22:31:35.368Z,1.20
2023-01-13T22:34:03.654Z,1.20
2023-01-13T22:36:31.916Z,2.45
2023-01-13T22:39:01.543Z,3.27
2023-01-13T22:41:29.873Z,3.10
2023-01-13T22:43:59.638Z,3.38
2023-01-13T22:46:28.080Z,1.98
2023-01-13T22:48:56.389Z,1.90
2023-01-13T22:51:26.609Z,1.90
2023-01-13T22:53:55.550Z,1.70
2023-01-13T22:56:25.550Z,1.65
2023-01-13T22:58:57.601Z,1.10
2023-01-13T23:01:28.945Z,1.05
2023-01-13T23:03:58.042Z,0.95
2023-01-13T23:06:28.259Z,1.40
2023-01-13T23:08:57.109Z,1.38
2023-01-13T23:11:27.261Z,1.33
2023-01-13T23:13:59.635Z,1.60
2023-01-13T23:16:31.082Z,1.67
2023-01-13T23:18:59.590Z,1.45
2023-01-13T23:21:31.012Z,1.60
2023-01-13T23:24:00.929Z,1.30
2023-01-13T23:26:29.876Z,1.73
2023-01-13T23:29:02.523Z,1.50
2023-01-13T23:31:32.703Z,1.33
2023-01-13T23:34:01.577Z,1.23
2023-01-13T23:36:30.533Z,1.17
2023-01-13T23:39:00.463Z,1.70
2023-01-13T23:41:29.712Z,1.35
2023-01-13T23:44:00.274Z,1.40
2023-01-13T23:46:29.633Z,1.42
2023-01-13T23:48:59.547Z,1.40
2023-01-13T23:51:30.085Z,1.27
2023-01-13T23:53:59.098Z,2.20
2023-01-13T23:56:29.547Z,1.40
2023-01-13T23:58:58.370Z,1.60
